createdAt,value
2023-03-01T00:02:26.385Z,74.77
2023-03-01T00:05:29.114Z,75.05
2023-03-01T00:08:33.782Z,74.67
2023-03-01T00:11:38.033Z,74.69
2023-03-01T00:14:41.346Z,74.58
2023-03-01T00:17:51.547Z,74.54
2023-03-01T00:20:55.353Z,74.70
2023-03-01T00:23:58.496Z,74.47
2023-03-01T00:27:03.048Z,74.82
2023-03-01T00:30:06.826Z,74.66
2023-03-01T00:33:09.612Z,74.61
2023-03-01T00:36:14.724Z,74.72
2023-03-01T00:39:17.724Z,74.88
2023-03-01T00:42:29.494Z,74.83
2023-03-01T00:45:35.423Z,74.94
2023-03-01T00:48:40.051Z,74.81
2023-03-01T00:51:42.850Z,75.07
2023-03-01T00:54:45.752Z,75.00
2023-03-01T00:57:52.388Z,75.26
2023-03-01T01:00:58.083Z,75.42
2023-03-01T01:04:03.557Z,75.79
2023-03-01T01:07:06.640Z,75.87
2023-03-01T01:10:17.963Z,76.05
2023-03-01T01:13:26.973Z,75.75
2023-03-01T01:16:30.990Z,75.82
2023-03-01T01:19:33.984Z,75.69
2023-03-01T01:22:36.707Z,75.75
2023-03-01T01:25:39.546Z,75.89
2023-03-01T01:28:43.779Z,75.69
2023-03-01T01:31:46.728Z,75.74
2023-03-01T01:34:55.608Z,75.81
2023-03-01T01:37:58.400Z,75.80
2023-03-01T01:41:03.906Z,75.88
2023-03-01T01:44:20.546Z,75.67
2023-03-01T01:47:25.486Z,75.86
2023-03-01T01:50:34.509Z,75.89
2023-03-01T01:53:38.994Z,75.76
2023-03-01T01:56:45.937Z,75.85
2023-03-01T01:59:54.607Z,76.22
2023-03-01T02:03:06.193Z,76.31
2023-03-01T02:06:14.029Z,76.17
2023-03-01T02:09:20.509Z,76.33
2023-03-01T02:12:26.380Z,76.11
2023-03-01T02:15:37.276Z,76.23
2023-03-01T02:18:41.072Z,76.36
2023-03-01T02:21:57.785Z,76.44
2023-03-01T02:25:11.856Z,76.46
2023-03-01T02:28:25.380Z,76.37
2023-03-01T02:31:57.529Z,76.17
2023-03-01T02:35:00.631Z,76.04
2023-03-01T02:38:04.829Z,76.44
2023-03-01T02:41:09.106Z,76.59
2023-03-01T02:44:13.188Z,76.63
2023-03-01T02:47:18.970Z,76.75
2023-03-01T02:50:57.234Z,76.71
2023-03-01T02:54:15.412Z,76.78
2023-03-01T02:57:18.352Z,77.01
2023-03-01T03:00:29.258Z,76.65
2023-03-01T03:03:32.039Z,76.70
2023-03-01T03:06:35.829Z,76.58
2023-03-01T03:09:43.018Z,76.74
2023-03-01T03:12:45.787Z,76.57
2023-03-01T03:15:49.883Z,76.83
2023-03-01T03:18:53.112Z,76.71
2023-03-01T03:21:55.866Z,76.88
2023-03-01T03:24:58.615Z,76.90
2023-03-01T03:28:01.345Z,77.03
2023-03-01T03:31:08.236Z,76.86
2023-03-01T03:34:18.487Z,76.83
2023-03-01T03:37:35.188Z,77.08
2023-03-01T03:40:40.882Z,77.13
2023-03-01T03:43:44.598Z,77.15
2023-03-01T03:46:48.638Z,77.19
2023-03-01T03:49:51.357Z,77.19
2023-03-01T03:52:54.124Z,77.32
2023-03-01T03:56:06.787Z,77.43
2023-03-01T03:59:16.252Z,77.30
2023-03-01T04:02:24.258Z,77.49
2023-03-01T04:05:27.806Z,77.48
2023-03-01T04:08:30.851Z,77.94
2023-03-01T04:11:35.654Z,77.56
2023-03-01T04:14:38.768Z,77.60
2023-03-01T04:17:43.544Z,77.79
2023-03-01T04:20:47.045Z,77.71
2023-03-01T04:23:53.633Z,77.71
2023-03-01T04:26:56.465Z,77.80
2023-03-01T04:29:59.145Z,77.85
2023-03-01T04:33:03.892Z,77.96
2023-03-01T04:36:09.836Z,77.90
2023-03-01T04:39:14.017Z,78.06
2023-03-01T04:42:24.482Z,78.11
2023-03-01T04:45:27.235Z,77.86
2023-03-01T04:48:36.534Z,78.00
2023-03-01T04:51:39.228Z,77.84
2023-03-01T04:54:42.290Z,77.79
2023-03-01T04:57:45.210Z,77.50
2023-03-01T05:00:47.831Z,77.94
2023-03-01T05:03:53.242Z,77.80
2023-03-01T05:06:56.938Z,77.89
2023-03-01T05:09:59.626Z,77.83
2023-03-01T05:13:06.265Z,78.15
2023-03-01T05:16:12.249Z,78.19
2023-03-01T05:19:17.283Z,77.94
2023-03-01T05:22:23.998Z,78.14
2023-03-01T05:25:34.004Z,78.19
2023-03-01T05:28:38.930Z,78.35
2023-03-01T05:31:42.068Z,78.61
2023-03-01T05:34:47.399Z,78.55
2023-03-01T05:37:52.192Z,78.44
2023-03-01T05:40:59.606Z,78.67
2023-03-01T05:44:02.260Z,78.71
2023-03-01T05:47:08.304Z,78.64
2023-03-01T05:50:14.998Z,78.86
2023-03-01T05:53:22.172Z,79.15
2023-03-01T05:56:27.475Z,79.20
2023-03-01T05:59:36.302Z,78.93
2023-03-01T06:02:41.152Z,78.99
2023-03-01T06:05:45.666Z,78.88
2023-03-01T06:08:51.866Z,78.88
2023-03-01T06:11:54.575Z,79.01
2023-03-01T06:14:57.287Z,78.83
2023-03-01T06:18:00.437Z,78.80
2023-03-01T06:21:08.337Z,78.81
2023-03-01T06:24:11.053Z,78.68
2023-03-01T06:27:13.908Z,78.97
2023-03-01T06:30:19.028Z,78.78
2023-03-01T06:33:24.504Z,78.68
2023-03-01T06:36:28.956Z,78.68
2023-03-01T06:39:36.245Z,78.38
2023-03-01T06:42:39.821Z,78.25
2023-03-01T06:45:44.924Z,78.00
2023-03-01T06:48:53.299Z,78.12
2023-03-01T06:52:03.642Z,77.73
2023-03-01T06:55:10.052Z,77.85
2023-03-01T06:58:15.383Z,77.78
2023-03-01T07:01:18.120Z,77.67
2023-03-01T07:04:20.842Z,77.52
2023-03-01T07:07:42.020Z,77.26
2023-03-01T07:10:44.717Z,77.34
2023-03-01T07:13:47.427Z,77.61
2023-03-01T07:16:50.086Z,77.24
2023-03-01T07:19:54.942Z,77.14
2023-03-01T07:23:03.819Z,77.29
2023-03-01T07:26:06.952Z,77.04
2023-03-01T07:29:12.161Z,77.24
2023-03-01T07:32:15.130Z,77.18
2023-03-01T07:35:17.952Z,77.17
2023-03-01T07:38:22.382Z,77.05
2023-03-01T07:41:25.077Z,76.77
2023-03-01T07:44:27.772Z,77.03
2023-03-01T07:47:30.569Z,76.87
2023-03-01T07:50:33.371Z,76.60
2023-03-01T07:53:37.590Z,76.57
2023-03-01T07:56:41.707Z,76.35
2023-03-01T07:59:44.368Z,75.95
2023-03-01T08:02:49.369Z,75.92
2023-03-01T08:05:55.756Z,76.12
2023-03-01T08:09:03.198Z,75.86
2023-03-01T08:12:08.406Z,75.59
2023-03-01T08:15:12.213Z,75.49
2023-03-01T08:18:14.883Z,74.70
2023-03-01T08:21:19.743Z,72.63
2023-03-01T08:24:23.859Z,72.69
2023-03-01T08:27:27.383Z,71.62
2023-03-01T08:30:30.231Z,71.39
2023-03-01T08:33:39.004Z,71.96
2023-03-01T08:36:44.216Z,71.83
2023-03-01T08:39:49.324Z,71.61
2023-03-01T08:42:54.782Z,69.11
2023-03-01T08:45:59.735Z,70.04
2023-03-01T08:49:02.468Z,69.56
2023-03-01T08:52:05.195Z,69.44
2023-03-01T08:55:10.477Z,69.54
2023-03-01T08:58:16.258Z,66.35
2023-03-01T09:01:22.410Z,67.06
2023-03-01T09:04:25.462Z,66.78
2023-03-01T09:07:30.066Z,63.20
2023-03-01T09:10:34.129Z,61.67
2023-03-01T09:13:37.470Z,60.14
2023-03-01T09:16:40.902Z,61.51
2023-03-01T09:19:43.755Z,62.15
2023-03-01T09:23:02.422Z,58.54
2023-03-01T09:26:07.011Z,59.16
2023-03-01T09:29:12.950Z,60.01
2023-03-01T09:32:15.656Z,59.12
2023-03-01T09:35:20.174Z,58.92
2023-03-01T09:38:30.447Z,57.86
2023-03-01T09:41:46.742Z,57.41
2023-03-01T09:44:59.449Z,58.04
2023-03-01T09:48:03.832Z,56.02
2023-03-01T09:51:14.791Z,56.19
2023-03-01T09:54:20.528Z,54.39
2023-03-01T09:57:34.663Z,55.68
2023-03-01T10:00:44.281Z,54.54
2023-03-01T10:04:02.880Z,55.37
2023-03-01T10:07:27.339Z,55.22
2023-03-01T10:10:36.699Z,54.12
2023-03-01T10:13:53.944Z,53.81
2023-03-01T10:16:59.967Z,52.19
2023-03-01T10:20:18.576Z,53.05
2023-03-01T10:23:24.145Z,52.83
2023-03-01T10:26:49.177Z,52.89
2023-03-01T10:30:04.574Z,51.95
2023-03-01T10:33:37.985Z,51.94
2023-03-01T10:36:41.932Z,52.30
2023-03-01T10:40:07.904Z,52.10
2023-03-01T10:43:14.364Z,50.92
2023-03-01T10:46:37.839Z,51.02
2023-03-01T10:49:41.470Z,50.85
2023-03-01T10:52:44.368Z,51.08
2023-03-01T10:55:59.579Z,50.03
2023-03-01T10:59:05.067Z,49.49
2023-03-01T11:02:25.733Z,49.26
2023-03-01T11:05:29.547Z,49.32
2023-03-01T11:08:37.444Z,49.77
2023-03-01T11:11:41.922Z,48.99
2023-03-01T11:14:52.321Z,48.39
2023-03-01T11:18:13.022Z,49.35
2023-03-01T11:21:19.403Z,47.85
2023-03-01T11:24:27.505Z,47.82
2023-03-01T11:27:33.790Z,48.23
2023-03-01T11:30:42.218Z,47.47
2023-03-01T11:33:50.351Z,47.69
2023-03-01T11:36:57.767Z,47.02
2023-03-01T11:40:07.941Z,45.99
2023-03-01T11:43:17.792Z,45.68
2023-03-01T11:46:45.374Z,45.37
2023-03-01T11:50:20.546Z,45.96
2023-03-01T11:53:51.023Z,45.54
2023-03-01T11:56:59.603Z,45.10
2023-03-01T12:00:24.528Z,44.09
2023-03-01T12:03:48.943Z,44.06
2023-03-01T12:07:11.195Z,44.40
2023-03-01T12:10:29.549Z,43.91
2023-03-01T12:14:14.062Z,43.20
2023-03-01T12:17:37.680Z,44.65
2023-03-01T12:20:53.332Z,43.91
2023-03-01T12:24:22.425Z,43.75
2023-03-01T12:27:59.859Z,43.72
2023-03-01T12:31:18.225Z,43.40
2023-03-01T12:34:42.136Z,43.22
2023-03-01T12:37:56.468Z,42.38
2023-03-01T12:41:23.650Z,42.82
2023-03-01T12:44:38.940Z,42.41
2023-03-01T12:48:00.572Z,43.11
2023-03-01T12:51:08.163Z,42.22
2023-03-01T12:54:17.759Z,42.61
2023-03-01T12:57:38.162Z,42.66
2023-03-01T13:00:47.612Z,43.14
2023-03-01T13:04:08.754Z,42.47
2023-03-01T13:07:20.990Z,42.68
2023-03-01T13:10:29.952Z,41.57
2023-03-01T13:13:34.253Z,41.64
2023-03-01T13:16:45.997Z,42.49
2023-03-01T13:19:58.872Z,42.50
2023-03-01T13:23:09.123Z,42.15
2023-03-01T13:26:16.535Z,42.33
2023-03-01T13:29:29.130Z,41.41
2023-03-01T13:32:43.438Z,42.24
2023-03-01T13:35:47.005Z,41.81
2023-03-01T13:38:58.245Z,41.83
2023-03-01T13:42:02.025Z,41.84
2023-03-01T13:45:20.321Z,41.39
2023-03-01T13:48:27.833Z,41.12
2023-03-01T13:51:34.460Z,41.04
2023-03-01T13:54:41.780Z,41.74
2023-03-01T13:57:48.373Z,41.93
2023-03-01T14:01:00.203Z,42.29
2023-03-01T14:04:22.773Z,42.25
2023-03-01T14:07:30.509Z,41.79
2023-03-01T14:10:50.245Z,41.97
2023-03-01T14:14:31.365Z,41.23
2023-03-01T14:17:57.428Z,41.05
2023-03-01T14:21:01.003Z,41.17
2023-03-01T14:24:08.799Z,41.41
2023-03-01T14:27:13.942Z,41.23
2023-03-01T14:30:21.523Z,40.88
2023-03-01T14:33:28.826Z,40.84
2023-03-01T14:36:33.603Z,41.45
2023-03-01T14:39:36.312Z,41.07
2023-03-01T14:42:47.916Z,40.42
2023-03-01T14:45:52.532Z,40.94
2023-03-01T14:49:00.582Z,41.27
2023-03-01T14:52:06.367Z,40.50
2023-03-01T14:55:19.260Z,40.74
2023-03-01T14:58:24.464Z,40.67
2023-03-01T15:01:34.768Z,40.56
2023-03-01T15:04:40.171Z,40.75
2023-03-01T15:07:49.817Z,40.28
2023-03-01T15:11:06.250Z,40.71
2023-03-01T15:15:02.721Z,40.57
2023-03-01T15:18:17.452Z,40.51
2023-03-01T15:21:25.464Z,40.34
2023-03-01T15:24:29.872Z,40.96
2023-03-01T15:27:34.658Z,40.34
2023-03-01T15:30:39.068Z,40.54
2023-03-01T15:33:48.140Z,40.91
2023-03-01T15:36:53.576Z,40.75
2023-03-01T15:39:57.752Z,39.65
2023-03-01T15:43:01.058Z,40.16
2023-03-01T15:46:04.246Z,39.94
2023-03-01T15:49:26.344Z,40.83
2023-03-01T15:52:36.116Z,41.37
2023-03-01T15:55:40.122Z,41.55
2023-03-01T15:58:43.496Z,41.49
2023-03-01T16:01:49.520Z,41.88
2023-03-01T16:04:52.622Z,41.72
2023-03-01T16:08:46.923Z,40.47
2023-03-01T16:11:51.697Z,41.54
2023-03-01T16:15:00.588Z,41.27
2023-03-01T16:18:07.270Z,41.72
2023-03-01T16:21:17.215Z,41.94
2023-03-01T16:24:19.913Z,41.46
2023-03-01T16:27:43.762Z,41.51
2023-03-01T16:30:49.508Z,42.10
2023-03-01T16:33:53.559Z,42.52
2023-03-01T16:36:56.786Z,42.87
2023-03-01T16:40:01.798Z,42.84
2023-03-01T16:43:06.741Z,43.02
2023-03-01T16:46:14.143Z,42.94
2023-03-01T16:49:17.116Z,43.69
2023-03-01T16:52:23.093Z,43.52
2023-03-01T16:55:34.079Z,44.12
2023-03-01T16:58:38.588Z,44.76
2023-03-01T17:01:42.443Z,44.95
2023-03-01T17:04:47.508Z,44.79
2023-03-01T17:07:55.780Z,45.03
2023-03-01T17:11:04.771Z,45.03
2023-03-01T17:14:09.345Z,45.38
2023-03-01T17:20:31.781Z,45.70
2023-03-01T17:23:36.115Z,44.97
2023-03-01T17:26:45.109Z,45.68
2023-03-01T17:29:49.386Z,46.13
2023-03-01T17:32:57.067Z,45.89
2023-03-01T17:36:00.294Z,46.30
2023-03-01T17:39:04.029Z,46.57
2023-03-01T17:42:07.274Z,46.93
2023-03-01T17:45:12.395Z,46.97
2023-03-01T17:48:16.433Z,47.54
2023-03-01T17:51:19.335Z,47.96
2023-03-01T17:54:22.312Z,48.03
2023-03-01T17:57:25.283Z,48.12
2023-03-01T18:00:30.089Z,48.09
2023-03-01T18:03:33.394Z,48.50
2023-03-01T18:06:37.774Z,48.69
2023-03-01T18:09:42.134Z,48.95
2023-03-01T18:12:45.184Z,49.51
2023-03-01T18:15:49.222Z,50.07
2023-03-01T18:18:57.637Z,50.37
2023-03-01T18:22:00.507Z,50.60
2023-03-01T18:25:03.273Z,51.20
2023-03-01T18:28:06.274Z,51.22
2023-03-01T18:31:11.851Z,51.52
2023-03-01T18:34:14.864Z,51.43
2023-03-01T18:37:18.167Z,51.57
2023-03-01T18:40:21.080Z,51.54
2023-03-01T18:43:24.532Z,51.64
2023-03-01T18:46:30.010Z,51.96
2023-03-01T18:49:35.440Z,52.26
2023-03-01T18:52:39.808Z,52.17
2023-03-01T18:55:48.471Z,52.04
2023-03-01T18:58:51.401Z,51.83
2023-03-01T19:02:04.528Z,52.46
2023-03-01T19:05:08.604Z,52.45
2023-03-01T19:08:13.616Z,52.90
2023-03-01T19:11:18.006Z,52.88
2023-03-01T19:14:20.939Z,53.13
2023-03-01T19:17:30.513Z,53.30
2023-03-01T19:20:34.213Z,53.01
2023-03-01T19:23:43.303Z,53.35
2023-03-01T19:26:46.092Z,53.52
2023-03-01T19:29:48.922Z,54.09
2023-03-01T19:32:56.126Z,54.03
2023-03-01T19:35:59.756Z,54.40
2023-03-01T19:39:11.433Z,54.13
2023-03-01T19:42:17.082Z,54.22
2023-03-01T19:45:25.287Z,54.27
2023-03-01T19:48:36.064Z,53.64
2023-03-01T19:51:39.448Z,53.40
2023-03-01T19:54:47.272Z,53.42
2023-03-01T19:57:52.475Z,53.96
2023-03-01T20:00:58.798Z,54.50
2023-03-01T20:04:10.771Z,53.90
2023-03-01T20:07:15.659Z,54.62
2023-03-01T20:10:19.201Z,54.45
2023-03-01T20:13:24.342Z,54.93
2023-03-01T20:16:27.498Z,54.56
2023-03-01T20:19:35.019Z,54.92
2023-03-01T20:22:37.777Z,55.71
2023-03-01T20:25:40.609Z,55.41
2023-03-01T20:28:44.024Z,56.06
2023-03-01T20:31:46.804Z,56.50
2023-03-01T20:34:51.196Z,56.52
2023-03-01T20:37:54.194Z,56.81
2023-03-01T20:41:01.865Z,57.17
2023-03-01T20:44:06.631Z,57.29
2023-03-01T20:47:09.472Z,57.47
2023-03-01T20:50:14.174Z,58.08
2023-03-01T20:53:17.031Z,58.15
2023-03-01T20:56:22.064Z,58.38
2023-03-01T20:59:25.439Z,57.55
2023-03-01T21:02:34.484Z,57.99
2023-03-01T21:05:38.796Z,58.67
2023-03-01T21:08:41.906Z,58.84
2023-03-01T21:11:44.673Z,59.11
2023-03-01T21:14:47.512Z,58.98
2023-03-01T21:17:50.940Z,59.07
2023-03-01T21:21:19.119Z,59.20
2023-03-01T21:24:22.007Z,59.46
2023-03-01T21:27:24.822Z,59.60
2023-03-01T21:30:32.096Z,59.75
2023-03-01T21:33:34.978Z,59.94
2023-03-01T21:36:39.926Z,60.33
2023-03-01T21:39:50.397Z,60.50
2023-03-01T21:42:53.099Z,60.57
2023-03-01T21:45:55.881Z,60.52
2023-03-01T21:48:59.418Z,60.62
2023-03-01T21:52:03.524Z,60.94
2023-03-01T21:55:07.207Z,61.21
2023-03-01T21:58:13.446Z,61.05
2023-03-01T22:01:18.844Z,61.09
2023-03-01T22:04:24.587Z,61.20
2023-03-01T22:07:29.013Z,61.42
2023-03-01T22:10:34.955Z,61.28
2023-03-01T22:14:04.877Z,61.26
2023-03-01T22:17:07.780Z,61.38
2023-03-01T22:20:11.926Z,61.44
2023-03-01T22:23:16.496Z,61.70
2023-03-01T22:26:25.333Z,61.82
2023-03-01T22:29:31.513Z,61.98
2023-03-01T22:32:34.310Z,62.14
2023-03-01T22:35:37.337Z,62.31
2023-03-01T22:38:41.781Z,62.24
2023-03-01T22:41:47.018Z,62.10
2023-03-01T22:44:54.235Z,62.39
2023-03-01T22:47:56.944Z,62.02
2023-03-01T22:50:59.706Z,62.02
2023-03-01T22:54:08.013Z,62.36
2023-03-01T22:57:10.796Z,62.56
2023-03-01T23:00:14.339Z,62.53
2023-03-01T23:03:17.617Z,62.59
2023-03-01T23:06:22.571Z,62.65
2023-03-01T23:09:30.878Z,62.86
2023-03-01T23:12:34.093Z,62.93
2023-03-01T23:15:39.648Z,63.17
2023-03-01T23:18:43.245Z,63.05
2023-03-01T23:21:52.769Z,62.88
2023-03-01T23:24:59.326Z,63.07
2023-03-01T23:28:03.537Z,62.86
2023-03-01T23:31:08.127Z,62.74
2023-03-01T23:34:10.922Z,63.14
2023-03-01T23:37:16.868Z,63.29
2023-03-01T23:40:21.377Z,64.08
2023-03-01T23:43:24.153Z,64.87
2023-03-01T23:46:28.971Z,65.10
2023-03-01T23:49:31.957Z,65.22
2023-03-01T23:52:40.154Z,65.22
2023-03-01T23:55:48.775Z,65.63
2023-03-01T23:58:53.866Z,66.00
